createdAt,value
2017-10-14T00:01:20.703Z,11.30
2017-10-14T00:03:48.280Z,11.20
2017-10-14T00:06:15.869Z,11.20
2017-10-14T00:08:44.180Z,11.20
2017-10-14T00:11:11.752Z,11.20
2017-10-14T00:13:39.342Z,11.20
2017-10-14T00:16:07.277Z,11.20
2017-10-14T00:18:34.845Z,11.20
2017-10-14T00:21:02.382Z,11.10
2017-10-14T00:23:29.943Z,11.10
2017-10-14T00:25:57.505Z,11.10
2017-10-14T00:28:25.087Z,11.10
2017-10-14T00:30:52.647Z,11.10
2017-10-14T00:33:20.201Z,11.10
2017-10-14T00:35:47.789Z,11.10
2017-10-14T00:38:15.329Z,11.00
2017-10-14T00:40:42.891Z,11.00
2017-10-14T00:43:10.425Z,11.00
2017-10-14T00:45:37.995Z,10.90
2017-10-14T00:48:05.559Z,10.90
2017-10-14T00:50:33.095Z,10.90
2017-10-14T00:53:00.671Z,10.90
2017-10-14T00:55:28.196Z,11.00
2017-10-14T00:57:56.522Z,11.00
2017-10-14T01:00:24.113Z,11.00
2017-10-14T01:02:51.700Z,10.90
2017-10-14T01:05:19.251Z,10.90
2017-10-14T01:07:46.811Z,10.90
2017-10-14T01:10:15.154Z,10.90
2017-10-14T01:12:42.704Z,10.90
2017-10-14T01:15:11.241Z,10.90
2017-10-14T01:17:39.552Z,10.90
2017-10-14T01:20:07.125Z,10.90
2017-10-14T01:22:34.687Z,10.90
2017-10-14T01:25:02.248Z,10.90
2017-10-14T01:27:29.806Z,10.90
2017-10-14T01:29:57.378Z,10.80
2017-10-14T01:32:24.953Z,10.80
2017-10-14T01:34:52.525Z,10.80
2017-10-14T01:37:20.873Z,10.80
2017-10-14T01:39:48.423Z,10.70
2017-10-14T01:42:15.965Z,10.70
2017-10-14T01:44:43.546Z,10.70
2017-10-14T01:47:11.119Z,10.70
2017-10-14T01:49:38.667Z,10.60
2017-10-14T01:52:06.269Z,10.60
2017-10-14T01:54:34.621Z,10.50
2017-10-14T01:57:02.174Z,10.50
2017-10-14T01:59:29.736Z,10.50
2017-10-14T02:01:57.340Z,10.50
2017-10-14T02:04:24.923Z,10.50
2017-10-14T02:06:52.514Z,10.50
2017-10-14T02:09:20.066Z,10.50
2017-10-14T02:11:47.665Z,10.40
2017-10-14T02:14:15.992Z,10.40
2017-10-14T02:16:43.525Z,10.30
2017-10-14T02:19:11.100Z,10.40
2017-10-14T02:21:38.644Z,10.30
2017-10-14T02:24:06.224Z,10.30
2017-10-14T02:26:33.778Z,10.30
2017-10-14T02:29:01.342Z,10.30
2017-10-14T02:31:28.876Z,10.20
2017-10-14T02:33:57.205Z,10.20
2017-10-14T02:36:24.757Z,10.20
2017-10-14T02:38:52.350Z,10.10
2017-10-14T02:41:19.899Z,10.10
2017-10-14T02:43:47.462Z,10.10
2017-10-14T02:46:15.044Z,10.10
2017-10-14T02:48:43.374Z,10.00
2017-10-14T02:51:10.969Z,10.00
2017-10-14T02:53:38.520Z,10.00
2017-10-14T02:56:06.088Z,10.00
2017-10-14T02:58:33.633Z,10.00
2017-10-14T03:01:01.220Z,10.00
2017-10-14T03:03:29.554Z,9.90
2017-10-14T03:05:57.154Z,9.90
2017-10-14T03:08:25.484Z,9.90
2017-10-14T03:10:53.069Z,9.90
2017-10-14T03:13:21.417Z,10.00
2017-10-14T03:15:48.964Z,9.90
2017-10-14T03:18:16.742Z,9.90
2017-10-14T03:20:44.305Z,9.90
2017-10-14T03:23:11.842Z,9.90
2017-10-14T03:25:39.704Z,9.80
2017-10-14T03:28:07.317Z,9.80
2017-10-14T03:30:34.880Z,9.80
2017-10-14T03:33:02.453Z,9.70
2017-10-14T03:35:30.763Z,9.70
2017-10-14T03:37:58.334Z,9.70
2017-10-14T03:40:25.902Z,9.70
2017-10-14T03:42:53.484Z,9.70
2017-10-14T03:45:21.047Z,9.60
2017-10-14T03:47:48.593Z,9.60
2017-10-14T03:50:16.150Z,9.50
2017-10-14T03:52:43.693Z,9.50
2017-10-14T03:55:11.251Z,9.60
2017-10-14T03:57:38.773Z,9.50
2017-10-14T04:00:07.097Z,9.50
2017-10-14T04:02:34.642Z,9.50
2017-10-14T04:05:02.191Z,9.50
2017-10-14T04:07:29.737Z,9.50
2017-10-14T04:09:58.047Z,9.50
2017-10-14T04:12:25.609Z,9.50
2017-10-14T04:14:53.158Z,9.50
2017-10-14T04:17:20.718Z,9.40
2017-10-14T04:19:48.275Z,9.40
2017-10-14T04:22:15.851Z,9.40
2017-10-14T04:24:43.415Z,9.40
2017-10-14T04:27:10.985Z,9.40
2017-10-14T04:29:38.528Z,9.40
2017-10-14T04:32:06.062Z,9.40
2017-10-14T04:34:34.384Z,9.30
2017-10-14T04:37:01.954Z,9.30
2017-10-14T04:39:29.524Z,9.30
2017-10-14T04:41:57.071Z,9.30
2017-10-14T04:44:28.168Z,9.20
2017-10-14T04:46:56.616Z,9.10
2017-10-14T04:49:24.169Z,9.10
2017-10-14T04:51:51.725Z,9.20
2017-10-14T04:54:19.257Z,9.10
2017-10-14T04:56:46.814Z,9.10
2017-10-14T04:59:14.376Z,9.10
2017-10-14T05:01:42.685Z,9.10
2017-10-14T05:04:10.268Z,9.10
2017-10-14T05:06:38.561Z,9.10
2017-10-14T05:09:06.122Z,9.00
2017-10-14T05:11:33.905Z,9.10
2017-10-14T05:14:01.442Z,9.10
2017-10-14T05:16:28.994Z,9.10
2017-10-14T05:18:58.409Z,9.10
2017-10-14T05:21:26.020Z,9.10
2017-10-14T05:23:53.593Z,9.00
2017-10-14T05:26:21.150Z,9.00
2017-10-14T05:28:48.742Z,9.00
2017-10-14T05:31:16.335Z,9.00
2017-10-14T05:33:43.864Z,9.00
2017-10-14T05:36:12.173Z,9.00
2017-10-14T05:38:39.728Z,8.90
2017-10-14T05:41:08.056Z,8.90
2017-10-14T05:43:35.602Z,8.90
2017-10-14T05:46:03.163Z,8.90
2017-10-14T05:48:30.709Z,8.90
2017-10-14T05:50:58.292Z,8.90
2017-10-14T05:53:25.866Z,8.90
2017-10-14T05:55:54.182Z,9.00
2017-10-14T05:58:21.757Z,9.00
2017-10-14T06:00:49.318Z,9.00
2017-10-14T06:03:16.881Z,9.00
2017-10-14T06:05:44.508Z,9.00
2017-10-14T06:08:12.092Z,9.00
2017-10-14T06:10:39.686Z,9.00
2017-10-14T06:13:07.259Z,9.00
2017-10-14T06:15:34.829Z,9.10
2017-10-14T06:18:03.141Z,9.10
2017-10-14T06:20:30.703Z,9.10
2017-10-14T06:22:58.259Z,9.20
2017-10-14T06:25:25.828Z,9.20
2017-10-14T06:27:53.430Z,9.20
2017-10-14T06:30:20.979Z,9.20
2017-10-14T06:32:48.534Z,9.20
2017-10-14T06:35:16.077Z,9.30
2017-10-14T06:37:43.647Z,9.30
2017-10-14T06:40:11.212Z,9.40
2017-10-14T06:42:38.791Z,9.40
2017-10-14T06:45:06.343Z,9.50
2017-10-14T06:47:33.922Z,9.60
2017-10-14T06:50:02.232Z,9.70
2017-10-14T06:52:29.815Z,9.70
2017-10-14T06:54:57.378Z,9.70
2017-10-14T06:57:24.941Z,9.80
2017-10-14T06:59:52.526Z,9.90
2017-10-14T07:02:20.087Z,9.90
2017-10-14T07:04:47.653Z,10.00
2017-10-14T07:07:15.518Z,10.00
2017-10-14T07:09:43.080Z,10.10
2017-10-14T07:12:10.631Z,10.20
2017-10-14T07:14:38.198Z,10.30
2017-10-14T07:17:05.762Z,10.30
2017-10-14T07:19:34.094Z,10.50
2017-10-14T07:22:01.653Z,10.50
2017-10-14T07:24:29.253Z,10.60
2017-10-14T07:26:56.818Z,10.70
2017-10-14T07:29:24.372Z,10.80
2017-10-14T07:31:51.971Z,10.90
2017-10-14T07:34:19.542Z,11.00
2017-10-14T07:36:47.121Z,11.00
2017-10-14T07:39:15.253Z,11.10
2017-10-14T07:41:42.832Z,11.20
2017-10-14T07:44:10.433Z,11.30
2017-10-14T07:46:37.992Z,11.40
2017-10-14T07:49:05.733Z,11.40
2017-10-14T07:51:33.312Z,11.50
2017-10-14T07:54:00.907Z,11.60
2017-10-14T07:56:29.231Z,11.80
2017-10-14T07:58:56.807Z,11.80
2017-10-14T08:01:24.438Z,12.00
2017-10-14T08:03:52.037Z,12.00
2017-10-14T08:06:19.618Z,12.20
2017-10-14T08:08:47.202Z,12.30
2017-10-14T08:11:14.768Z,12.20
2017-10-14T08:13:42.316Z,12.40
2017-10-14T08:16:10.666Z,12.60
2017-10-14T08:18:38.242Z,12.60
2017-10-14T08:21:06.579Z,12.80
2017-10-14T08:23:34.118Z,12.80
2017-10-14T08:26:01.678Z,12.90
2017-10-14T08:28:30.044Z,13.10
2017-10-14T08:30:57.621Z,13.00
2017-10-14T08:33:25.959Z,13.20
2017-10-14T08:35:54.283Z,13.20
2017-10-14T08:38:21.850Z,13.20
2017-10-14T08:40:49.429Z,13.30
2017-10-14T08:43:17.007Z,13.40
2017-10-14T08:45:44.571Z,13.50
2017-10-14T08:48:12.920Z,13.60
2017-10-14T08:50:40.550Z,13.60
2017-10-14T08:53:08.139Z,13.80
2017-10-14T08:55:35.714Z,13.90
2017-10-14T08:58:03.308Z,14.10
2017-10-14T09:00:31.671Z,14.30
2017-10-14T09:03:00.029Z,14.50
2017-10-14T09:05:27.598Z,14.50
2017-10-14T09:07:55.216Z,14.50
2017-10-14T09:10:22.786Z,14.70
2017-10-14T09:12:50.343Z,14.70
2017-10-14T09:15:17.945Z,14.70
2017-10-14T09:17:45.492Z,14.80
2017-10-14T09:20:13.119Z,14.80
2017-10-14T09:22:40.665Z,15.00
2017-10-14T09:25:08.252Z,15.10
2017-10-14T09:27:35.803Z,15.20
2017-10-14T09:30:03.400Z,15.40
2017-10-14T09:32:30.970Z,15.40
2017-10-14T09:34:58.550Z,15.60
2017-10-14T09:37:26.899Z,15.60
2017-10-14T09:39:54.467Z,15.60
2017-10-14T09:42:22.066Z,15.60
2017-10-14T09:44:49.605Z,15.60
2017-10-14T09:47:17.950Z,15.90
2017-10-14T09:49:45.501Z,15.90
2017-10-14T09:52:13.083Z,15.90
2017-10-14T09:54:40.681Z,16.20
2017-10-14T09:57:08.224Z,16.40
2017-10-14T09:59:36.554Z,16.30
2017-10-14T10:02:04.112Z,16.30
2017-10-14T10:04:31.711Z,16.40
2017-10-14T10:09:59.869Z,16.80
2017-10-14T10:12:27.421Z,16.80
2017-10-14T10:14:54.999Z,16.80
2017-10-14T10:17:22.565Z,17.10
2017-10-14T10:19:50.134Z,17.20
2017-10-14T10:22:17.693Z,17.40
2017-10-14T10:24:45.261Z,17.70
2017-10-14T10:27:12.832Z,18.00
2017-10-14T10:29:41.171Z,18.40
2017-10-14T10:32:08.751Z,18.40
2017-10-14T10:34:36.310Z,18.70
2017-10-14T10:37:03.906Z,18.50
2017-10-14T10:39:32.217Z,19.00
2017-10-14T10:41:59.797Z,18.90
2017-10-14T10:44:27.424Z,18.80
2017-10-14T10:46:55.027Z,18.90
2017-10-14T10:49:22.633Z,19.10
2017-10-14T10:51:50.170Z,19.40
2017-10-14T10:54:18.534Z,19.80
2017-10-14T10:56:46.143Z,19.80
2017-10-14T10:59:14.281Z,19.50
2017-10-14T11:01:42.628Z,20.50
2017-10-14T11:04:10.261Z,20.50
2017-10-14T11:06:37.857Z,21.30
2017-10-14T11:09:05.424Z,21.10
2017-10-14T11:11:32.985Z,20.80
2017-10-14T11:14:00.523Z,21.50
2017-10-14T11:16:28.089Z,22.10
2017-10-14T11:18:55.654Z,22.50
2017-10-14T11:21:23.260Z,22.50
2017-10-14T11:23:50.809Z,22.60
2017-10-14T11:26:26.357Z,23.30
2017-10-14T11:28:54.714Z,22.70
2017-10-14T11:31:26.397Z,22.70
2017-10-14T11:33:54.151Z,22.90
2017-10-14T11:36:21.725Z,23.50
2017-10-14T11:38:50.189Z,24.60
2017-10-14T11:41:18.554Z,24.40
2017-10-14T11:43:46.123Z,24.40
2017-10-14T11:46:13.736Z,23.40
2017-10-14T11:48:41.300Z,23.80
2017-10-14T11:51:08.895Z,24.10
2017-10-14T11:53:36.471Z,24.20
2017-10-14T11:56:04.055Z,24.90
2017-10-14T11:58:32.481Z,26.00
2017-10-14T12:01:00.103Z,25.90
2017-10-14T12:03:28.421Z,26.30
2017-10-14T12:05:56.003Z,26.30
2017-10-14T12:08:23.586Z,26.40
2017-10-14T12:10:51.948Z,26.70
2017-10-14T12:13:19.511Z,26.70
2017-10-14T12:15:47.912Z,26.60
2017-10-14T12:18:16.231Z,27.00
2017-10-14T12:20:43.815Z,26.90
2017-10-14T12:23:11.353Z,26.50
2017-10-14T12:25:38.915Z,25.70
2017-10-14T12:28:06.496Z,25.70
2017-10-14T12:30:34.042Z,26.30
2017-10-14T12:33:01.622Z,26.70
2017-10-14T12:35:30.783Z,27.10
2017-10-14T12:38:01.072Z,27.80
2017-10-14T12:40:32.861Z,27.90
2017-10-14T12:43:00.417Z,27.90
2017-10-14T12:45:28.000Z,27.80
2017-10-14T12:47:56.318Z,27.30
2017-10-14T12:50:24.654Z,28.00
2017-10-14T12:52:52.216Z,27.90
2017-10-14T12:55:19.774Z,27.60
2017-10-14T12:57:47.319Z,27.60
2017-10-14T13:00:14.899Z,27.80
2017-10-14T13:02:42.470Z,28.00
2017-10-14T13:05:10.014Z,28.10
2017-10-14T13:07:37.588Z,28.30
2017-10-14T13:10:05.177Z,28.10
2017-10-14T13:12:33.492Z,28.00
2017-10-14T13:15:01.051Z,28.00
2017-10-14T13:17:28.616Z,27.70
2017-10-14T13:19:57.160Z,27.70
2017-10-14T13:22:25.485Z,27.80
2017-10-14T13:24:53.026Z,27.80
2017-10-14T13:27:20.589Z,27.80
2017-10-14T13:29:48.146Z,28.30
2017-10-14T13:32:15.734Z,28.30
2017-10-14T13:34:43.282Z,28.70
2017-10-14T13:37:10.865Z,28.60
2017-10-14T13:39:38.418Z,28.20
2017-10-14T13:42:06.004Z,28.50
2017-10-14T13:44:33.730Z,28.50
2017-10-14T13:47:02.032Z,28.80
2017-10-14T13:49:29.583Z,28.80
2017-10-14T13:51:57.142Z,28.40
2017-10-14T13:54:24.706Z,29.00
2017-10-14T13:56:53.205Z,28.70
2017-10-14T13:59:20.788Z,28.30
2017-10-14T14:01:49.086Z,27.50
2017-10-14T14:04:16.659Z,27.40
2017-10-14T14:06:44.222Z,26.90
2017-10-14T14:09:11.890Z,26.70
2017-10-14T14:11:39.445Z,27.00
2017-10-14T14:14:12.958Z,27.30
2017-10-14T14:16:40.980Z,27.00
2017-10-14T14:19:08.717Z,27.30
2017-10-14T14:21:37.227Z,27.60
2017-10-14T14:24:05.564Z,27.90
2017-10-14T14:26:33.127Z,27.90
2017-10-14T14:29:00.699Z,27.60
2017-10-14T14:31:28.548Z,27.30
2017-10-14T14:33:56.118Z,26.90
2017-10-14T14:36:23.692Z,27.20
2017-10-14T14:38:51.301Z,27.10
2017-10-14T14:41:18.869Z,26.70
2017-10-14T14:43:46.418Z,26.60
2017-10-14T14:46:13.988Z,26.50
2017-10-14T14:48:41.582Z,26.40
2017-10-14T14:51:09.676Z,26.40
2017-10-14T14:53:37.262Z,26.30
2017-10-14T14:56:05.005Z,25.90
2017-10-14T14:58:32.598Z,25.50
2017-10-14T15:01:00.806Z,25.90
2017-10-14T15:03:28.449Z,26.10
2017-10-14T15:05:56.788Z,25.50
2017-10-14T15:08:24.380Z,25.50
2017-10-14T15:10:54.746Z,25.10
2017-10-14T15:13:22.718Z,25.10
2017-10-14T15:15:52.125Z,24.90
2017-10-14T15:18:20.339Z,24.70
2017-10-14T15:20:49.270Z,24.60
2017-10-14T15:23:18.104Z,24.10
2017-10-14T15:25:46.102Z,24.00
2017-10-14T15:28:13.968Z,23.90
2017-10-14T15:30:41.680Z,23.60
2017-10-14T15:33:09.286Z,23.60
2017-10-14T15:35:37.138Z,23.40
2017-10-14T15:38:05.786Z,23.00
2017-10-14T15:40:33.565Z,23.00
2017-10-14T15:43:02.123Z,22.70
2017-10-14T15:45:29.938Z,22.70
2017-10-14T15:47:58.383Z,22.40
2017-10-14T15:50:26.177Z,22.40
2017-10-14T15:52:54.766Z,22.20
2017-10-14T15:55:22.347Z,22.10
2017-10-14T15:57:50.733Z,21.80
2017-10-14T16:00:18.292Z,21.80
2017-10-14T16:02:45.869Z,21.80
2017-10-14T16:05:13.425Z,21.70
2017-10-14T16:07:40.997Z,21.60
2017-10-14T16:10:08.522Z,21.40
2017-10-14T16:12:36.861Z,21.20
2017-10-14T16:15:04.410Z,21.20
2017-10-14T16:17:41.449Z,21.10
2017-10-14T16:20:22.253Z,21.00
2017-10-14T16:22:51.364Z,20.90
2017-10-14T16:25:23.246Z,20.70
2017-10-14T16:27:50.813Z,20.50
2017-10-14T16:30:18.408Z,20.50
2017-10-14T16:32:56.536Z,20.40
2017-10-14T16:35:24.409Z,20.20
2017-10-14T16:37:51.956Z,20.10
2017-10-14T16:40:19.549Z,20.00
2017-10-14T16:42:47.093Z,19.90
2017-10-14T16:45:15.455Z,19.80
2017-10-14T16:47:43.000Z,19.60
2017-10-14T16:50:22.608Z,19.50
2017-10-14T16:52:58.517Z,19.30
2017-10-14T16:55:27.611Z,19.20
2017-10-14T16:57:55.249Z,19.10
2017-10-14T17:03:32.091Z,18.80
2017-10-14T17:06:05.725Z,18.80
2017-10-14T17:08:36.316Z,18.70
2017-10-14T17:11:07.737Z,18.60
2017-10-14T17:13:37.527Z,18.40
2017-10-14T17:16:05.884Z,18.30
2017-10-14T17:18:35.112Z,18.30
2017-10-14T17:21:09.977Z,18.20
2017-10-14T17:23:37.563Z,18.20
2017-10-14T17:26:09.125Z,18.10
2017-10-14T17:28:39.897Z,17.90
2017-10-14T17:31:10.433Z,17.80
2017-10-14T17:33:41.329Z,17.70
2017-10-14T17:36:10.357Z,17.70
2017-10-14T17:38:39.564Z,17.50
2017-10-14T17:41:10.006Z,17.40
2017-10-14T17:43:40.469Z,17.40
2017-10-14T17:46:11.401Z,17.30
2017-10-14T17:48:40.099Z,17.30
2017-10-14T17:51:09.500Z,17.20
2017-10-14T17:53:39.204Z,17.10
2017-10-14T17:56:08.409Z,17.00
2017-10-14T17:58:38.622Z,17.00
2017-10-14T18:01:09.255Z,16.90
2017-10-14T18:03:39.839Z,16.80
2017-10-14T18:06:09.752Z,16.70
2017-10-14T18:08:39.511Z,16.50
2017-10-14T18:11:10.066Z,16.50
2017-10-14T18:13:50.668Z,16.40
2017-10-14T18:16:19.632Z,16.30
2017-10-14T18:18:49.931Z,16.20
2017-10-14T18:21:21.467Z,16.20
2017-10-14T18:23:50.454Z,16.10
2017-10-14T18:26:19.179Z,16.10
2017-10-14T18:28:46.739Z,16.10
2017-10-14T18:31:14.482Z,16.00
2017-10-14T18:33:42.049Z,15.90
2017-10-14T18:36:12.714Z,15.90
2017-10-14T18:38:42.863Z,15.80
2017-10-14T18:41:10.722Z,15.70
2017-10-14T18:43:43.895Z,15.70
2017-10-14T18:46:12.758Z,15.60
2017-10-14T18:48:41.806Z,15.60
2017-10-14T18:51:12.840Z,15.50
2017-10-14T18:53:42.901Z,15.50
2017-10-14T18:56:11.435Z,15.50
2017-10-14T18:58:42.264Z,15.40
2017-10-14T19:01:12.081Z,15.30
2017-10-14T19:03:41.839Z,15.30
2017-10-14T19:06:11.842Z,15.20
2017-10-14T19:08:42.267Z,15.20
2017-10-14T19:11:11.894Z,15.10
2017-10-14T19:13:42.560Z,15.10
2017-10-14T19:16:12.393Z,15.00
2017-10-14T19:18:43.831Z,14.80
2017-10-14T19:21:11.500Z,14.80
2017-10-14T19:23:41.774Z,14.60
2017-10-14T19:26:12.810Z,14.60
2017-10-14T19:28:41.432Z,14.50
2017-10-14T19:31:12.266Z,14.40
2017-10-14T19:33:43.385Z,14.50
2017-10-14T19:36:11.603Z,14.40
2017-10-14T19:38:39.171Z,14.40
2017-10-14T19:41:07.761Z,14.30
2017-10-14T19:43:37.187Z,14.40
2017-10-14T19:46:14.762Z,14.30
2017-10-14T19:48:42.366Z,14.20
2017-10-14T19:51:09.948Z,14.30
2017-10-14T19:53:41.372Z,14.20
2017-10-14T19:56:09.411Z,14.20
2017-10-14T19:58:39.919Z,14.20
2017-10-14T20:01:11.080Z,14.10
2017-10-14T20:03:40.982Z,14.10
2017-10-14T20:06:12.131Z,14.00
2017-10-14T20:08:40.471Z,14.00
2017-10-14T20:11:09.499Z,14.00
2017-10-14T20:13:40.484Z,13.90
2017-10-14T20:16:09.581Z,13.90
2017-10-14T20:18:40.925Z,13.90
2017-10-14T20:21:09.472Z,13.80
2017-10-14T20:23:40.857Z,13.60
2017-10-14T20:26:09.430Z,13.60
2017-10-14T20:28:39.302Z,13.60
2017-10-14T20:31:10.011Z,13.60
2017-10-14T20:33:40.552Z,13.60
2017-10-14T20:36:08.126Z,13.60
2017-10-14T20:38:44.625Z,13.60
2017-10-14T20:41:12.212Z,13.60
2017-10-14T20:43:42.052Z,13.60
2017-10-14T20:46:10.359Z,13.60
2017-10-14T20:48:41.977Z,13.60
2017-10-14T20:51:13.215Z,13.50
2017-10-14T20:53:41.753Z,13.50
2017-10-14T20:56:10.617Z,13.50
2017-10-14T20:58:40.935Z,13.50
2017-10-14T21:01:09.967Z,13.40
2017-10-14T21:03:41.429Z,13.40
2017-10-14T21:06:08.997Z,13.30
2017-10-14T21:08:40.220Z,13.30
2017-10-14T21:11:11.934Z,13.20
2017-10-14T21:13:47.252Z,13.20
2017-10-14T21:16:19.965Z,13.20
2017-10-14T21:18:52.511Z,13.20
2017-10-14T21:21:21.366Z,13.10
2017-10-14T21:23:53.669Z,13.10
2017-10-14T21:29:22.484Z,13.10
2017-10-14T21:31:50.435Z,13.00
2017-10-14T21:34:22.045Z,13.00
2017-10-14T21:36:52.393Z,12.90
2017-10-14T21:39:25.688Z,12.90
2017-10-14T21:41:53.298Z,12.80
2017-10-14T21:44:20.964Z,12.80
2017-10-14T21:46:50.769Z,12.80
2017-10-14T21:49:21.990Z,12.80
2017-10-14T21:51:53.484Z,12.70
2017-10-14T21:54:24.036Z,12.70
2017-10-14T21:56:53.670Z,12.60
2017-10-14T21:59:24.940Z,12.60
2017-10-14T22:01:53.698Z,12.60
2017-10-14T22:04:22.065Z,12.60
2017-10-14T22:06:50.402Z,12.50
2017-10-14T22:09:17.987Z,12.50
2017-10-14T22:11:45.540Z,12.50
2017-10-14T22:14:13.137Z,12.50
2017-10-14T22:16:41.518Z,12.40
2017-10-14T22:19:09.874Z,12.30
2017-10-14T22:21:37.434Z,12.30
2017-10-14T22:24:04.991Z,12.30
2017-10-14T22:26:32.613Z,12.20
2017-10-14T22:29:00.225Z,12.20
2017-10-14T22:31:28.557Z,12.20
2017-10-14T22:33:56.130Z,12.20
2017-10-14T22:36:23.697Z,12.20
2017-10-14T22:38:51.282Z,12.10
2017-10-14T22:41:18.906Z,12.10
2017-10-14T22:43:46.459Z,12.00
2017-10-14T22:46:14.049Z,12.00
2017-10-14T22:48:41.639Z,11.90
2017-10-14T22:51:10.002Z,11.90
2017-10-14T22:53:37.564Z,11.90
2017-10-14T22:56:05.929Z,11.90
2017-10-14T22:58:33.489Z,11.80
2017-10-14T23:01:01.034Z,11.90
2017-10-14T23:03:28.624Z,11.80
2017-10-14T23:05:56.965Z,11.70
2017-10-14T23:08:24.538Z,11.70
2017-10-14T23:10:52.093Z,11.70
2017-10-14T23:13:19.683Z,11.70
2017-10-14T23:15:48.029Z,11.50
2017-10-14T23:18:15.619Z,11.50
2017-10-14T23:20:43.982Z,11.50
2017-10-14T23:23:11.563Z,11.50
2017-10-14T23:25:39.935Z,11.50
2017-10-14T23:28:07.523Z,11.40
2017-10-14T23:30:35.082Z,11.50
2017-10-14T23:33:02.655Z,11.50
2017-10-14T23:35:30.214Z,11.50
2017-10-14T23:37:57.825Z,11.50
2017-10-14T23:40:25.394Z,11.40
2017-10-14T23:42:52.975Z,11.40
2017-10-14T23:45:21.311Z,11.40
2017-10-14T23:47:48.941Z,11.40
2017-10-14T23:50:16.508Z,11.40
2017-10-14T23:52:44.063Z,11.40
2017-10-14T23:55:11.650Z,11.40
2017-10-14T23:57:39.225Z,11.30
